sensor_id;sensor_type;location;lat;lon;timestamp;P1;durP1;ratioP1;P2;durP2;ratioP2
52248;SDS011;38541;48.130;8.378;2023-09-18T00:00:30;3.00;;;1.98;;
52248;SDS011;38541;48.130;8.378;2023-09-18T00:02:57;1.75;;;1.65;;
52248;SDS011;38541;48.130;8.378;2023-09-18T00:05:23;5.20;;;2.08;;
52248;SDS011;38541;48.130;8.378;2023-09-18T00:07:50;3.60;;;1.70;;
52248;SDS011;38541;48.130;8.378;2023-09-18T00:10:17;2.05;;;1.70;;
52248;SDS011;38541;48.130;8.378;2023-09-18T00:12:43;1.95;;;1.85;;
52248;SDS011;38541;48.130;8.378;2023-09-18T00:15:10;1.83;;;1.63;;
52248;SDS011;38541;48.130;8.378;2023-09-18T00:17:36;1.50;;;1.40;;
52248;SDS011;38541;48.130;8.378;2023-09-18T00:20:03;1.80;;;1.65;;
52248;SDS011;38541;48.130;8.378;2023-09-18T00:22:33;2.22;;;1.60;;
52248;SDS011;38541;48.130;8.378;2023-09-18T00:25:00;1.88;;;1.75;;
52248;SDS011;38541;48.130;8.378;2023-09-18T00:27:28;2.63;;;1.70;;
52248;SDS011;38541;48.130;8.378;2023-09-18T00:29:55;2.03;;;1.88;;
52248;SDS011;38541;48.130;8.378;2023-09-18T00:32:22;2.17;;;1.42;;
52248;SDS011;38541;48.130;8.378;2023-09-18T00:34:48;1.60;;;1.50;;
52248;SDS011;38541;48.130;8.378;2023-09-18T00:37:15;1.52;;;1.42;;
52248;SDS011;38541;48.130;8.378;2023-09-18T00:39:43;2.90;;;1.90;;
52248;SDS011;38541;48.130;8.378;2023-09-18T00:42:10;3.75;;;2.00;;
52248;SDS011;38541;48.130;8.378;2023-09-18T00:44:40;2.33;;;1.70;;
52248;SDS011;38541;48.130;8.378;2023-09-18T00:47:10;2.63;;;1.77;;
52248;SDS011;38541;48.130;8.378;2023-09-18T00:49:38;4.68;;;1.75;;
52248;SDS011;38541;48.130;8.378;2023-09-18T00:52:06;5.43;;;2.03;;
52248;SDS011;38541;48.130;8.378;2023-09-18T00:54:35;2.85;;;1.50;;
52248;SDS011;38541;48.130;8.378;2023-09-18T00:57:03;1.88;;;1.67;;
52248;SDS011;38541;48.130;8.378;2023-09-18T00:59:30;1.58;;;1.42;;
52248;SDS011;38541;48.130;8.378;2023-09-18T01:01:58;1.85;;;1.33;;
52248;SDS011;38541;48.130;8.378;2023-09-18T01:04:25;3.78;;;1.35;;
52248;SDS011;38541;48.130;8.378;2023-09-18T01:06:55;2.10;;;1.45;;
52248;SDS011;38541;48.130;8.378;2023-09-18T01:09:23;4.18;;;2.00;;
52248;SDS011;38541;48.130;8.378;2023-09-18T01:14:55;2.88;;;1.50;;
52248;SDS011;38541;48.130;8.378;2023-09-18T01:17:26;3.15;;;1.65;;
52248;SDS011;38541;48.130;8.378;2023-09-18T01:19:53;2.13;;;1.45;;
52248;SDS011;38541;48.130;8.378;2023-09-18T01:22:20;6.53;;;2.00;;
52248;SDS011;38541;48.130;8.378;2023-09-18T01:24:48;2.60;;;1.77;;
52248;SDS011;38541;48.130;8.378;2023-09-18T01:27:16;5.50;;;1.80;;
52248;SDS011;38541;48.130;8.378;2023-09-18T01:29:46;3.85;;;1.60;;
52248;SDS011;38541;48.130;8.378;2023-09-18T01:32:13;4.90;;;1.55;;
52248;SDS011;38541;48.130;8.378;2023-09-18T01:34:41;3.42;;;1.90;;
52248;SDS011;38541;48.130;8.378;2023-09-18T01:37:15;5.25;;;1.95;;
52248;SDS011;38541;48.130;8.378;2023-09-18T01:39:44;2.40;;;1.42;;
52248;SDS011;38541;48.130;8.378;2023-09-18T01:42:14;1.88;;;1.67;;
52248;SDS011;38541;48.130;8.378;2023-09-18T01:44:41;1.90;;;1.55;;
52248;SDS011;38541;48.130;8.378;2023-09-18T01:47:12;3.17;;;1.55;;
52248;SDS011;38541;48.130;8.378;2023-09-18T01:49:42;2.40;;;1.65;;
52248;SDS011;38541;48.130;8.378;2023-09-18T01:52:09;4.75;;;1.83;;
52248;SDS011;38541;48.130;8.378;2023-09-18T01:54:36;2.33;;;1.83;;
52248;SDS011;38541;48.130;8.378;2023-09-18T01:57:03;3.63;;;1.92;;
52248;SDS011;38541;48.130;8.378;2023-09-18T01:59:31;6.35;;;2.53;;
52248;SDS011;38541;48.130;8.378;2023-09-18T02:01:58;2.25;;;2.00;;
52248;SDS011;38541;48.130;8.378;2023-09-18T02:04:25;3.90;;;1.60;;
52248;SDS011;38541;48.130;8.378;2023-09-18T02:07:13;4.70;;;2.20;;
52248;SDS011;38541;48.130;8.378;2023-09-18T02:09:40;3.25;;;2.08;;
52248;SDS011;38541;48.130;8.378;2023-09-18T02:12:07;2.25;;;1.80;;
52248;SDS011;38541;48.130;8.378;2023-09-18T02:14:33;5.03;;;2.33;;
52248;SDS011;38541;48.130;8.378;2023-09-18T02:17:00;4.18;;;1.70;;
52248;SDS011;38541;48.130;8.378;2023-09-18T02:19:27;3.17;;;1.73;;
52248;SDS011;38541;48.130;8.378;2023-09-18T02:21:55;6.70;;;1.60;;
52248;SDS011;38541;48.130;8.378;2023-09-18T02:24:24;4.10;;;1.58;;
52248;SDS011;38541;48.130;8.378;2023-09-18T02:26:50;2.47;;;1.90;;
52248;SDS011;38541;48.130;8.378;2023-09-18T02:29:17;4.38;;;1.80;;
52248;SDS011;38541;48.130;8.378;2023-09-18T02:31:43;2.83;;;1.63;;
52248;SDS011;38541;48.130;8.378;2023-09-18T02:34:10;3.05;;;1.58;;
52248;SDS011;38541;48.130;8.378;2023-09-18T02:36:37;2.47;;;1.90;;
52248;SDS011;38541;48.130;8.378;2023-09-18T02:39:04;4.60;;;1.67;;
52248;SDS011;38541;48.130;8.378;2023-09-18T02:41:30;3.95;;;1.65;;
52248;SDS011;38541;48.130;8.378;2023-09-18T02:43:57;1.60;;;1.50;;
52248;SDS011;38541;48.130;8.378;2023-09-18T02:46:24;3.13;;;1.70;;
52248;SDS011;38541;48.130;8.378;2023-09-18T02:48:50;4.63;;;2.20;;
52248;SDS011;38541;48.130;8.378;2023-09-18T02:51:18;3.45;;;1.80;;
52248;SDS011;38541;48.130;8.378;2023-09-18T02:53:45;2.83;;;2.00;;
52248;SDS011;38541;48.130;8.378;2023-09-18T02:56:11;5.10;;;2.10;;
52248;SDS011;38541;48.130;8.378;2023-09-18T02:58:38;2.72;;;1.90;;
52248;SDS011;38541;48.130;8.378;2023-09-18T03:01:06;4.22;;;2.08;;
52248;SDS011;38541;48.130;8.378;2023-09-18T03:03:33;6.47;;;2.42;;
52248;SDS011;38541;48.130;8.378;2023-09-18T03:06:01;5.90;;;2.15;;
52248;SDS011;38541;48.130;8.378;2023-09-18T03:08:29;5.60;;;3.10;;
52248;SDS011;38541;48.130;8.378;2023-09-18T03:10:57;6.82;;;2.97;;
52248;SDS011;38541;48.130;8.378;2023-09-18T03:13:25;7.78;;;2.80;;
52248;SDS011;38541;48.130;8.378;2023-09-18T03:15:53;10.48;;;3.33;;
52248;SDS011;38541;48.130;8.378;2023-09-18T03:18:20;7.85;;;3.47;;
52248;SDS011;38541;48.130;8.378;2023-09-18T03:20:46;5.85;;;2.70;;
52248;SDS011;38541;48.130;8.378;2023-09-18T03:23:14;6.32;;;2.58;;
52248;SDS011;38541;48.130;8.378;2023-09-18T03:25:41;4.65;;;2.38;;
52248;SDS011;38541;48.130;8.378;2023-09-18T03:28:18;5.35;;;2.50;;
52248;SDS011;38541;48.130;8.378;2023-09-18T03:30:46;8.32;;;2.55;;
52248;SDS011;38541;48.130;8.378;2023-09-18T03:33:12;6.00;;;2.30;;
52248;SDS011;38541;48.130;8.378;2023-09-18T03:35:48;4.07;;;2.30;;
52248;SDS011;38541;48.130;8.378;2023-09-18T03:38:20;5.47;;;1.92;;
52248;SDS011;38541;48.130;8.378;2023-09-18T03:40:47;3.47;;;1.70;;
52248;SDS011;38541;48.130;8.378;2023-09-18T03:43:14;4.10;;;1.80;;
52248;SDS011;38541;48.130;8.378;2023-09-18T03:45:41;1.95;;;1.45;;
52248;SDS011;38541;48.130;8.378;2023-09-18T03:48:09;2.58;;;1.60;;
52248;SDS011;38541;48.130;8.378;2023-09-18T03:50:37;4.82;;;1.40;;
52248;SDS011;38541;48.130;8.378;2023-09-18T03:53:05;1.92;;;1.33;;
52248;SDS011;38541;48.130;8.378;2023-09-18T03:55:32;2.30;;;1.52;;
52248;SDS011;38541;48.130;8.378;2023-09-18T03:57:59;2.55;;;1.30;;
52248;SDS011;38541;48.130;8.378;2023-09-18T04:00:26;1.90;;;0.98;;
52248;SDS011;38541;48.130;8.378;2023-09-18T04:02:53;2.60;;;1.60;;
52248;SDS011;38541;48.130;8.378;2023-09-18T04:05:20;3.67;;;2.13;;
52248;SDS011;38541;48.130;8.378;2023-09-18T04:07:47;2.85;;;1.10;;
52248;SDS011;38541;48.130;8.378;2023-09-18T04:10:14;1.95;;;1.40;;
52248;SDS011;38541;48.130;8.378;2023-09-18T04:12:50;4.32;;;1.38;;
52248;SDS011;38541;48.130;8.378;2023-09-18T04:15:18;4.55;;;1.45;;
52248;SDS011;38541;48.130;8.378;2023-09-18T04:17:46;2.42;;;1.35;;
52248;SDS011;38541;48.130;8.378;2023-09-18T04:20:13;1.67;;;1.23;;
52248;SDS011;38541;48.130;8.378;2023-09-18T04:22:44;1.27;;;1.00;;
52248;SDS011;38541;48.130;8.378;2023-09-18T04:25:16;3.72;;;1.00;;
52248;SDS011;38541;48.130;8.378;2023-09-18T04:27:43;1.92;;;1.42;;
52248;SDS011;38541;48.130;8.378;2023-09-18T04:30:10;2.17;;;1.30;;
52248;SDS011;38541;48.130;8.378;2023-09-18T04:32:37;5.55;;;1.30;;
52248;SDS011;38541;48.130;8.378;2023-09-18T04:35:04;1.83;;;0.90;;
52248;SDS011;38541;48.130;8.378;2023-09-18T04:37:35;1.33;;;0.93;;
52248;SDS011;38541;48.130;8.378;2023-09-18T04:40:03;1.40;;;1.00;;
52248;SDS011;38541;48.130;8.378;2023-09-18T04:42:30;0.90;;;0.70;;
52248;SDS011;38541;48.130;8.378;2023-09-18T04:44:57;1.48;;;1.10;;
52248;SDS011;38541;48.130;8.378;2023-09-18T04:47:24;1.88;;;1.20;;
52248;SDS011;38541;48.130;8.378;2023-09-18T04:49:51;1.27;;;0.80;;
52248;SDS011;38541;48.130;8.378;2023-09-18T04:52:17;1.77;;;0.82;;
52248;SDS011;38541;48.130;8.378;2023-09-18T04:54:44;2.72;;;0.82;;
52248;SDS011;38541;48.130;8.378;2023-09-18T04:57:10;1.58;;;0.70;;
52248;SDS011;38541;48.130;8.378;2023-09-18T04:59:38;1.38;;;1.05;;
52248;SDS011;38541;48.130;8.378;2023-09-18T05:02:04;4.30;;;1.00;;
52248;SDS011;38541;48.130;8.378;2023-09-18T05:04:31;2.05;;;1.25;;
52248;SDS011;38541;48.130;8.378;2023-09-18T05:06:58;2.67;;;1.13;;
52248;SDS011;38541;48.130;8.378;2023-09-18T05:09:27;2.13;;;1.35;;
52248;SDS011;38541;48.130;8.378;2023-09-18T05:11:54;3.25;;;1.13;;
52248;SDS011;38541;48.130;8.378;2023-09-18T05:14:21;3.28;;;1.30;;
52248;SDS011;38541;48.130;8.378;2023-09-18T05:16:47;2.78;;;1.15;;
52248;SDS011;38541;48.130;8.378;2023-09-18T05:19:14;4.80;;;1.40;;
52248;SDS011;38541;48.130;8.378;2023-09-18T05:21:40;3.72;;;1.20;;
52248;SDS011;38541;48.130;8.378;2023-09-18T05:24:08;4.18;;;1.83;;
52248;SDS011;38541;48.130;8.378;2023-09-18T05:26:35;3.17;;;1.20;;
52248;SDS011;38541;48.130;8.378;2023-09-18T05:29:01;3.08;;;1.38;;
52248;SDS011;38541;48.130;8.378;2023-09-18T05:31:29;5.90;;;3.45;;
52248;SDS011;38541;48.130;8.378;2023-09-18T05:33:56;4.90;;;1.90;;
52248;SDS011;38541;48.130;8.378;2023-09-18T05:36:23;5.00;;;2.17;;
52248;SDS011;38541;48.130;8.378;2023-09-18T05:38:50;5.22;;;1.77;;
52248;SDS011;38541;48.130;8.378;2023-09-18T05:41:17;2.83;;;1.15;;
52248;SDS011;38541;48.130;8.378;2023-09-18T05:43:44;5.53;;;1.90;;
52248;SDS011;38541;48.130;8.378;2023-09-18T05:46:10;4.30;;;1.30;;
52248;SDS011;38541;48.130;8.378;2023-09-18T05:48:37;2.88;;;1.23;;
52248;SDS011;38541;48.130;8.378;2023-09-18T05:51:03;3.15;;;1.58;;
52248;SDS011;38541;48.130;8.378;2023-09-18T05:53:30;4.45;;;2.22;;
52248;SDS011;38541;48.130;8.378;2023-09-18T05:55:57;2.22;;;1.48;;
52248;SDS011;38541;48.130;8.378;2023-09-18T05:58:33;4.03;;;1.52;;
52248;SDS011;38541;48.130;8.378;2023-09-18T06:01:01;4.20;;;1.55;;
52248;SDS011;38541;48.130;8.378;2023-09-18T06:03:27;4.47;;;1.33;;
52248;SDS011;38541;48.130;8.378;2023-09-18T06:05:57;1.80;;;1.02;;
52248;SDS011;38541;48.130;8.378;2023-09-18T06:08:23;4.45;;;1.60;;
52248;SDS011;38541;48.130;8.378;2023-09-18T06:10:52;6.93;;;1.20;;
52248;SDS011;38541;48.130;8.378;2023-09-18T06:13:20;3.22;;;1.60;;
52248;SDS011;38541;48.130;8.378;2023-09-18T06:15:47;3.53;;;1.33;;
52248;SDS011;38541;48.130;8.378;2023-09-18T06:18:14;2.83;;;1.30;;
52248;SDS011;38541;48.130;8.378;2023-09-18T06:20:41;5.15;;;1.70;;
52248;SDS011;38541;48.130;8.378;2023-09-18T06:23:07;4.28;;;1.30;;
52248;SDS011;38541;48.130;8.378;2023-09-18T06:25:34;5.30;;;1.40;;
52248;SDS011;38541;48.130;8.378;2023-09-18T06:28:00;2.05;;;1.10;;
52248;SDS011;38541;48.130;8.378;2023-09-18T06:30:29;2.35;;;1.00;;
52248;SDS011;38541;48.130;8.378;2023-09-18T06:33:00;1.25;;;1.00;;
52248;SDS011;38541;48.130;8.378;2023-09-18T06:35:27;2.88;;;1.40;;
52248;SDS011;38541;48.130;8.378;2023-09-18T06:37:54;1.65;;;1.02;;
52248;SDS011;38541;48.130;8.378;2023-09-18T06:40:24;3.97;;;1.00;;
52248;SDS011;38541;48.130;8.378;2023-09-18T06:42:51;4.28;;;1.10;;
52248;SDS011;38541;48.130;8.378;2023-09-18T06:45:20;2.45;;;1.10;;
52248;SDS011;38541;48.130;8.378;2023-09-18T06:47:47;2.80;;;1.20;;
52248;SDS011;38541;48.130;8.378;2023-09-18T06:50:13;3.22;;;1.35;;
52248;SDS011;38541;48.130;8.378;2023-09-18T06:52:40;2.70;;;1.00;;
52248;SDS011;38541;48.130;8.378;2023-09-18T06:55:07;3.05;;;1.25;;
52248;SDS011;38541;48.130;8.378;2023-09-18T06:57:34;3.25;;;1.35;;
52248;SDS011;38541;48.130;8.378;2023-09-18T07:00:01;2.60;;;1.10;;
52248;SDS011;38541;48.130;8.378;2023-09-18T07:02:27;4.85;;;1.45;;
52248;SDS011;38541;48.130;8.378;2023-09-18T07:04:54;2.92;;;1.45;;
52248;SDS011;38541;48.130;8.378;2023-09-18T07:07:20;1.42;;;1.02;;
52248;SDS011;38541;48.130;8.378;2023-09-18T07:09:52;1.20;;;0.93;;
52248;SDS011;38541;48.130;8.378;2023-09-18T07:12:30;1.05;;;0.77;;
52248;SDS011;38541;48.130;8.378;2023-09-18T07:15:01;1.83;;;0.80;;
52248;SDS011;38541;48.130;8.378;2023-09-18T07:17:29;1.27;;;1.17;;
52248;SDS011;38541;48.130;8.378;2023-09-18T07:19:57;0.60;;;0.50;;
52248;SDS011;38541;48.130;8.378;2023-09-18T07:22:23;0.70;;;0.70;;
52248;SDS011;38541;48.130;8.378;2023-09-18T07:24:50;1.95;;;0.80;;
52248;SDS011;38541;48.130;8.378;2023-09-18T07:27:16;0.80;;;0.80;;
52248;SDS011;38541;48.130;8.378;2023-09-18T07:29:43;0.88;;;0.60;;
52248;SDS011;38541;48.130;8.378;2023-09-18T07:32:09;1.27;;;0.85;;
52248;SDS011;38541;48.130;8.378;2023-09-18T07:34:36;0.80;;;0.80;;
52248;SDS011;38541;48.130;8.378;2023-09-18T07:37:03;1.20;;;1.10;;
52248;SDS011;38541;48.130;8.378;2023-09-18T07:39:29;0.68;;;0.68;;
52248;SDS011;38541;48.130;8.378;2023-09-18T07:41:56;2.55;;;0.80;;
52248;SDS011;38541;48.130;8.378;2023-09-18T07:44:23;1.20;;;0.60;;
52248;SDS011;38541;48.130;8.378;2023-09-18T07:46:50;1.00;;;0.60;;
52248;SDS011;38541;48.130;8.378;2023-09-18T07:49:16;0.93;;;0.70;;
52248;SDS011;38541;48.130;8.378;2023-09-18T07:51:43;0.82;;;0.60;;
52248;SDS011;38541;48.130;8.378;2023-09-18T07:54:13;1.35;;;1.13;;
52248;SDS011;38541;48.130;8.378;2023-09-18T07:56:40;3.05;;;1.63;;
52248;SDS011;38541;48.130;8.378;2023-09-18T07:59:07;2.15;;;1.63;;
52248;SDS011;38541;48.130;8.378;2023-09-18T08:01:33;3.65;;;2.22;;
52248;SDS011;38541;48.130;8.378;2023-09-18T08:04:01;1.70;;;1.60;;
52248;SDS011;38541;48.130;8.378;2023-09-18T08:06:27;1.58;;;1.17;;
52248;SDS011;38541;48.130;8.378;2023-09-18T08:08:54;0.68;;;0.68;;
52248;SDS011;38541;48.130;8.378;2023-09-18T08:11:21;3.22;;;1.02;;
52248;SDS011;38541;48.130;8.378;2023-09-18T08:13:48;1.85;;;0.65;;
52248;SDS011;38541;48.130;8.378;2023-09-18T08:16:15;1.58;;;1.27;;
52248;SDS011;38541;48.130;8.378;2023-09-18T08:18:43;1.70;;;1.35;;
52248;SDS011;38541;48.130;8.378;2023-09-18T08:21:10;0.60;;;0.60;;
52248;SDS011;38541;48.130;8.378;2023-09-18T08:23:39;0.80;;;0.80;;
52248;SDS011;38541;48.130;8.378;2023-09-18T08:26:06;0.68;;;0.60;;
52248;SDS011;38541;48.130;8.378;2023-09-18T08:28:33;0.90;;;0.70;;
52248;SDS011;38541;48.130;8.378;2023-09-18T08:31:03;2.78;;;1.55;;
52248;SDS011;38541;48.130;8.378;2023-09-18T08:33:29;1.90;;;0.90;;
52248;SDS011;38541;48.130;8.378;2023-09-18T08:35:56;1.70;;;0.90;;
52248;SDS011;38541;48.130;8.378;2023-09-18T08:38:23;1.20;;;0.90;;
52248;SDS011;38541;48.130;8.378;2023-09-18T08:40:53;2.28;;;1.35;;
52248;SDS011;38541;48.130;8.378;2023-09-18T08:43:21;1.63;;;1.05;;
52248;SDS011;38541;48.130;8.378;2023-09-18T08:48:20;2.60;;;0.80;;
52248;SDS011;38541;48.130;8.378;2023-09-18T08:50:47;0.73;;;0.73;;
52248;SDS011;38541;48.130;8.378;2023-09-18T08:53:15;0.63;;;0.52;;
52248;SDS011;38541;48.130;8.378;2023-09-18T08:55:41;1.00;;;0.80;;
52248;SDS011;38541;48.130;8.378;2023-09-18T08:58:08;0.85;;;0.70;;
52248;SDS011;38541;48.130;8.378;2023-09-18T09:00:38;0.80;;;0.80;;
52248;SDS011;38541;48.130;8.378;2023-09-18T09:03:04;0.80;;;0.70;;
52248;SDS011;38541;48.130;8.378;2023-09-18T09:05:32;1.75;;;1.25;;
52248;SDS011;38541;48.130;8.378;2023-09-18T09:07:59;1.95;;;0.63;;
52248;SDS011;38541;48.130;8.378;2023-09-18T09:10:26;1.08;;;0.60;;
52248;SDS011;38541;48.130;8.378;2023-09-18T09:12:57;0.70;;;0.70;;
52248;SDS011;38541;48.130;8.378;2023-09-18T09:15:28;1.17;;;0.80;;
52248;SDS011;38541;48.130;8.378;2023-09-18T09:18:06;0.80;;;0.80;;
52248;SDS011;38541;48.130;8.378;2023-09-18T09:20:34;1.10;;;0.60;;
52248;SDS011;38541;48.130;8.378;2023-09-18T09:23:02;0.47;;;0.47;;
52248;SDS011;38541;48.130;8.378;2023-09-18T09:25:31;0.60;;;0.60;;
52248;SDS011;38541;48.130;8.378;2023-09-18T09:28:00;1.33;;;0.60;;
52248;SDS011;38541;48.130;8.378;2023-09-18T09:30:30;0.65;;;0.65;;
52248;SDS011;38541;48.130;8.378;2023-09-18T09:32:58;1.20;;;0.90;;
52248;SDS011;38541;48.130;8.378;2023-09-18T09:35:29;1.00;;;0.90;;
52248;SDS011;38541;48.130;8.378;2023-09-18T09:37:57;0.60;;;0.60;;
52248;SDS011;38541;48.130;8.378;2023-09-18T09:40:28;1.20;;;0.60;;
52248;SDS011;38541;48.130;8.378;2023-09-18T09:42:56;0.60;;;0.60;;
52248;SDS011;38541;48.130;8.378;2023-09-18T09:45:27;0.70;;;0.70;;
52248;SDS011;38541;48.130;8.378;2023-09-18T09:48:05;0.70;;;0.70;;
52248;SDS011;38541;48.130;8.378;2023-09-18T09:50:33;0.80;;;0.60;;
52248;SDS011;38541;48.130;8.378;2023-09-18T09:53:10;0.82;;;0.70;;
52248;SDS011;38541;48.130;8.378;2023-09-18T09:55:37;0.60;;;0.60;;
52248;SDS011;38541;48.130;8.378;2023-09-18T09:58:05;0.50;;;0.50;;
52248;SDS011;38541;48.130;8.378;2023-09-18T10:03:19;1.65;;;1.00;;
52248;SDS011;38541;48.130;8.378;2023-09-18T10:05:48;0.60;;;0.60;;
52248;SDS011;38541;48.130;8.378;2023-09-18T10:08:22;0.50;;;0.50;;
52248;SDS011;38541;48.130;8.378;2023-09-18T10:10:55;0.85;;;0.65;;
52248;SDS011;38541;48.130;8.378;2023-09-18T10:13:27;1.65;;;1.00;;
52248;SDS011;38541;48.130;8.378;2023-09-18T10:16:13;3.00;;;1.25;;
52248;SDS011;38541;48.130;8.378;2023-09-18T10:24:17;1.35;;;1.05;;
52248;SDS011;38541;48.130;8.378;2023-09-18T10:27:00;0.95;;;0.75;;
52248;SDS011;38541;48.130;8.378;2023-09-18T10:29:31;1.67;;;0.82;;
52248;SDS011;38541;48.130;8.378;2023-09-18T10:31:59;0.70;;;0.70;;
52248;SDS011;38541;48.130;8.378;2023-09-18T10:34:31;0.85;;;0.77;;
52248;SDS011;38541;48.130;8.378;2023-09-18T10:37:00;1.10;;;1.00;;
52248;SDS011;38541;48.130;8.378;2023-09-18T10:39:36;1.02;;;0.90;;
52248;SDS011;38541;48.130;8.378;2023-09-18T10:42:07;1.33;;;1.23;;
52248;SDS011;38541;48.130;8.378;2023-09-18T10:44:35;0.85;;;0.85;;
52248;SDS011;38541;48.130;8.378;2023-09-18T10:47:06;0.82;;;0.80;;
52248;SDS011;38541;48.130;8.378;2023-09-18T10:49:35;1.02;;;1.00;;
52248;SDS011;38541;48.130;8.378;2023-09-18T10:52:02;1.13;;;1.10;;
52248;SDS011;38541;48.130;8.378;2023-09-18T10:54:30;1.08;;;1.08;;
52248;SDS011;38541;48.130;8.378;2023-09-18T10:56:58;1.58;;;1.40;;
52248;SDS011;38541;48.130;8.378;2023-09-18T10:59:25;1.23;;;1.13;;
52248;SDS011;38541;48.130;8.378;2023-09-18T11:01:54;1.42;;;1.33;;
52248;SDS011;38541;48.130;8.378;2023-09-18T11:04:20;1.73;;;0.80;;
52248;SDS011;38541;48.130;8.378;2023-09-18T11:09:23;1.63;;;1.10;;
52248;SDS011;38541;48.130;8.378;2023-09-18T11:14:40;2.15;;;1.02;;
52248;SDS011;38541;48.130;8.378;2023-09-18T11:17:35;1.30;;;0.90;;
52248;SDS011;38541;48.130;8.378;2023-09-18T11:22:36;1.15;;;0.80;;
52248;SDS011;38541;48.130;8.378;2023-09-18T11:28:42;0.80;;;0.80;;
52248;SDS011;38541;48.130;8.378;2023-09-18T11:31:03;0.70;;;0.70;;
52248;SDS011;38541;48.130;8.378;2023-09-18T11:33:40;1.38;;;1.00;;
52248;SDS011;38541;48.130;8.378;2023-09-18T11:38:51;0.80;;;0.80;;
52248;SDS011;38541;48.130;8.378;2023-09-18T11:41:28;1.05;;;1.05;;
52248;SDS011;38541;48.130;8.378;2023-09-18T11:46:46;2.55;;;0.80;;
52248;SDS011;38541;48.130;8.378;2023-09-18T11:49:21;1.85;;;0.80;;
52248;SDS011;38541;48.130;8.378;2023-09-18T11:51:50;0.85;;;0.82;;
52248;SDS011;38541;48.130;8.378;2023-09-18T11:54:17;1.25;;;0.90;;
52248;SDS011;38541;48.130;8.378;2023-09-18T11:56:44;0.70;;;0.70;;
52248;SDS011;38541;48.130;8.378;2023-09-18T11:59:11;0.80;;;0.80;;
52248;SDS011;38541;48.130;8.378;2023-09-18T12:01:39;2.03;;;0.80;;
52248;SDS011;38541;48.130;8.378;2023-09-18T12:04:06;1.23;;;1.15;;
52248;SDS011;38541;48.130;8.378;2023-09-18T12:06:38;1.02;;;0.93;;
52248;SDS011;38541;48.130;8.378;2023-09-18T12:09:06;1.15;;;0.75;;
52248;SDS011;38541;48.130;8.378;2023-09-18T12:11:33;1.00;;;0.90;;
52248;SDS011;38541;48.130;8.378;2023-09-18T12:14:08;0.93;;;0.90;;
52248;SDS011;38541;48.130;8.378;2023-09-18T12:16:38;1.20;;;0.75;;
52248;SDS011;38541;48.130;8.378;2023-09-18T12:19:05;0.70;;;0.70;;
52248;SDS011;38541;48.130;8.378;2023-09-18T12:21:39;0.77;;;0.70;;
52248;SDS011;38541;48.130;8.378;2023-09-18T12:24:12;0.82;;;0.82;;
52248;SDS011;38541;48.130;8.378;2023-09-18T12:26:39;0.70;;;0.70;;
52248;SDS011;38541;48.130;8.378;2023-09-18T12:29:07;0.85;;;0.85;;
52248;SDS011;38541;48.130;8.378;2023-09-18T12:31:34;0.65;;;0.65;;
52248;SDS011;38541;48.130;8.378;2023-09-18T12:34:01;0.65;;;0.65;;
52248;SDS011;38541;48.130;8.378;2023-09-18T12:36:28;1.17;;;0.77;;
52248;SDS011;38541;48.130;8.378;2023-09-18T12:38:56;1.52;;;0.90;;
52248;SDS011;38541;48.130;8.378;2023-09-18T12:41:27;0.70;;;0.70;;
52248;SDS011;38541;48.130;8.378;2023-09-18T12:43:57;0.60;;;0.60;;
52248;SDS011;38541;48.130;8.378;2023-09-18T12:46:23;1.38;;;0.80;;
52248;SDS011;38541;48.130;8.378;2023-09-18T12:48:50;0.90;;;0.90;;
52248;SDS011;38541;48.130;8.378;2023-09-18T12:51:17;0.80;;;0.80;;
52248;SDS011;38541;48.130;8.378;2023-09-18T12:53:58;0.90;;;0.68;;
52248;SDS011;38541;48.130;8.378;2023-09-18T12:56:25;0.80;;;0.80;;
52248;SDS011;38541;48.130;8.378;2023-09-18T12:58:52;1.05;;;0.90;;
52248;SDS011;38541;48.130;8.378;2023-09-18T13:01:36;0.60;;;0.60;;
52248;SDS011;38541;48.130;8.378;2023-09-18T13:04:04;0.70;;;0.70;;
52248;SDS011;38541;48.130;8.378;2023-09-18T13:06:32;1.20;;;1.10;;
52248;SDS011;38541;48.130;8.378;2023-09-18T13:09:18;0.70;;;0.70;;
52248;SDS011;38541;48.130;8.378;2023-09-18T13:11:53;0.80;;;0.80;;
52248;SDS011;38541;48.130;8.378;2023-09-18T13:14:20;1.02;;;0.95;;
52248;SDS011;38541;48.130;8.378;2023-09-18T13:16:47;1.55;;;0.90;;
52248;SDS011;38541;48.130;8.378;2023-09-18T13:19:14;0.88;;;0.88;;
52248;SDS011;38541;48.130;8.378;2023-09-18T13:21:50;1.05;;;0.80;;
52248;SDS011;38541;48.130;8.378;2023-09-18T13:24:29;0.90;;;0.85;;
52248;SDS011;38541;48.130;8.378;2023-09-18T13:26:57;0.82;;;0.82;;
52248;SDS011;38541;48.130;8.378;2023-09-18T13:29:25;0.77;;;0.77;;
52248;SDS011;38541;48.130;8.378;2023-09-18T13:31:52;2.05;;;1.00;;
52248;SDS011;38541;48.130;8.378;2023-09-18T13:34:19;1.63;;;0.90;;
52248;SDS011;38541;48.130;8.378;2023-09-18T13:36:45;0.90;;;0.90;;
52248;SDS011;38541;48.130;8.378;2023-09-18T13:39:12;1.30;;;0.80;;
52248;SDS011;38541;48.130;8.378;2023-09-18T13:41:39;1.33;;;1.20;;
52248;SDS011;38541;48.130;8.378;2023-09-18T13:44:07;0.75;;;0.73;;
52248;SDS011;38541;48.130;8.378;2023-09-18T13:46:34;0.90;;;0.90;;
52248;SDS011;38541;48.130;8.378;2023-09-18T13:49:03;2.05;;;1.00;;
52248;SDS011;38541;48.130;8.378;2023-09-18T13:51:31;0.90;;;0.80;;
52248;SDS011;38541;48.130;8.378;2023-09-18T13:53:58;1.88;;;1.58;;
52248;SDS011;38541;48.130;8.378;2023-09-18T13:56:25;1.08;;;1.05;;
52248;SDS011;38541;48.130;8.378;2023-09-18T13:58:55;1.23;;;1.13;;
52248;SDS011;38541;48.130;8.378;2023-09-18T14:01:25;1.02;;;0.93;;
52248;SDS011;38541;48.130;8.378;2023-09-18T14:03:54;1.38;;;1.05;;
52248;SDS011;38541;48.130;8.378;2023-09-18T14:06:21;0.65;;;0.65;;
52248;SDS011;38541;48.130;8.378;2023-09-18T14:08:48;1.30;;;0.98;;
52248;SDS011;38541;48.130;8.378;2023-09-18T14:11:15;1.20;;;1.10;;
52248;SDS011;38541;48.130;8.378;2023-09-18T14:13:42;1.40;;;1.13;;
52248;SDS011;38541;48.130;8.378;2023-09-18T14:16:09;1.10;;;0.93;;
52248;SDS011;38541;48.130;8.378;2023-09-18T14:18:37;0.82;;;0.82;;
52248;SDS011;38541;48.130;8.378;2023-09-18T14:21:03;0.68;;;0.65;;
52248;SDS011;38541;48.130;8.378;2023-09-18T14:23:30;0.93;;;0.70;;
52248;SDS011;38541;48.130;8.378;2023-09-18T14:25:56;1.23;;;0.80;;
52248;SDS011;38541;48.130;8.378;2023-09-18T14:28:23;1.15;;;0.95;;
52248;SDS011;38541;48.130;8.378;2023-09-18T14:30:50;0.88;;;0.75;;
52248;SDS011;38541;48.130;8.378;2023-09-18T14:33:16;1.00;;;0.90;;
52248;SDS011;38541;48.130;8.378;2023-09-18T14:35:43;1.10;;;1.00;;
52248;SDS011;38541;48.130;8.378;2023-09-18T14:38:10;0.88;;;0.88;;
52248;SDS011;38541;48.130;8.378;2023-09-18T14:40:36;1.60;;;0.80;;
52248;SDS011;38541;48.130;8.378;2023-09-18T14:43:07;0.70;;;0.70;;
52248;SDS011;38541;48.130;8.378;2023-09-18T14:45:34;1.13;;;0.80;;
52248;SDS011;38541;48.130;8.378;2023-09-18T14:48:01;0.95;;;0.73;;
52248;SDS011;38541;48.130;8.378;2023-09-18T14:50:28;0.80;;;0.80;;
52248;SDS011;38541;48.130;8.378;2023-09-18T14:52:54;0.70;;;0.70;;
52248;SDS011;38541;48.130;8.378;2023-09-18T14:55:21;0.85;;;0.70;;
52248;SDS011;38541;48.130;8.378;2023-09-18T14:57:49;0.90;;;0.75;;
52248;SDS011;38541;48.130;8.378;2023-09-18T15:00:20;0.93;;;0.63;;
52248;SDS011;38541;48.130;8.378;2023-09-18T15:02:47;1.10;;;0.82;;
52248;SDS011;38541;48.130;8.378;2023-09-18T15:05:14;4.68;;;0.80;;
52248;SDS011;38541;48.130;8.378;2023-09-18T15:07:41;1.63;;;0.80;;
52248;SDS011;38541;48.130;8.378;2023-09-18T15:10:08;0.88;;;0.82;;
52248;SDS011;38541;48.130;8.378;2023-09-18T15:12:36;1.35;;;1.00;;
52248;SDS011;38541;48.130;8.378;2023-09-18T15:15:03;0.95;;;0.80;;
52248;SDS011;38541;48.130;8.378;2023-09-18T15:17:31;1.85;;;1.15;;
52248;SDS011;38541;48.130;8.378;2023-09-18T15:19:59;1.13;;;0.98;;
52248;SDS011;38541;48.130;8.378;2023-09-18T15:22:26;2.08;;;1.00;;
52248;SDS011;38541;48.130;8.378;2023-09-18T15:24:53;0.80;;;0.80;;